createdAt,value
2023-01-20T00:01:48.996Z,99440.34
2023-01-20T00:04:19.348Z,99439.53
2023-01-20T00:06:46.369Z,99434.09
2023-01-20T00:09:17.913Z,99444.47
2023-01-20T00:11:45.698Z,99451.09
2023-01-20T00:14:12.960Z,99458.69
2023-01-20T00:16:39.813Z,99457.53
2023-01-20T00:19:06.841Z,99459.00
2023-01-20T00:21:35.258Z,99456.53
2023-01-20T00:24:02.154Z,99467.13
2023-01-20T00:26:29.061Z,99464.94
2023-01-20T00:28:57.898Z,99470.63
2023-01-20T00:31:29.950Z,99474.28
2023-01-20T00:33:59.559Z,99481.06
2023-01-20T00:36:28.515Z,99485.84
2023-01-20T00:38:55.434Z,99488.31
2023-01-20T00:41:22.311Z,99481.50
2023-01-20T00:43:49.296Z,99477.66
2023-01-20T00:46:16.764Z,99487.09
2023-01-20T00:48:43.661Z,99490.28
2023-01-20T00:51:11.064Z,99496.78
2023-01-20T00:53:37.987Z,99508.38
2023-01-20T00:56:05.666Z,99509.03
2023-01-20T00:58:32.520Z,99512.72
2023-01-20T01:00:59.792Z,99514.19
2023-01-20T01:03:30.257Z,99513.31
2023-01-20T01:06:10.228Z,99518.13
2023-01-20T01:08:37.312Z,99533.38
2023-01-20T01:11:04.876Z,99532.91
2023-01-20T01:13:32.320Z,99527.63
2023-01-20T01:15:59.622Z,99526.47
2023-01-20T01:18:28.931Z,99526.13
2023-01-20T01:20:55.953Z,99526.09
2023-01-20T01:23:22.924Z,99525.13
2023-01-20T01:25:49.734Z,99520.97
2023-01-20T01:28:16.652Z,99521.88
2023-01-20T01:30:44.179Z,99517.31
2023-01-20T01:33:11.004Z,99516.41
2023-01-20T01:35:37.844Z,99502.91
2023-01-20T01:38:04.666Z,99509.72
2023-01-20T01:40:31.445Z,99506.03
2023-01-20T01:42:59.471Z,99499.59
2023-01-20T01:45:28.790Z,99503.72
2023-01-20T01:48:13.640Z,99503.03
2023-01-20T01:50:40.449Z,99502.06
2023-01-20T01:53:08.751Z,99499.06
2023-01-20T01:55:39.782Z,99492.66
2023-01-20T01:58:09.000Z,99497.66
2023-01-20T02:00:36.354Z,99488.66
2023-01-20T02:03:04.208Z,99483.50
2023-01-20T02:05:31.515Z,99484.91
2023-01-20T02:07:59.971Z,99484.91
2023-01-20T02:10:27.081Z,99491.03
2023-01-20T02:12:54.766Z,99479.47
2023-01-20T02:15:27.558Z,99477.81
2023-01-20T02:18:12.644Z,99487.09
2023-01-20T02:21:13.723Z,99481.34
2023-01-20T02:24:07.772Z,99474.28
2023-01-20T02:27:06.837Z,99478.09
2023-01-20T02:30:12.169Z,99474.63
2023-01-20T02:32:56.836Z,99471.13
2023-01-20T02:35:30.033Z,99468.00
2023-01-20T02:38:49.976Z,99470.44
2023-01-20T02:41:23.679Z,99483.31
2023-01-20T02:44:16.645Z,99473.75
2023-01-20T02:46:57.905Z,99475.91
2023-01-20T02:49:30.493Z,99481.34
2023-01-20T02:52:03.606Z,99479.69
2023-01-20T02:54:34.832Z,99487.94
2023-01-20T02:57:04.305Z,99488.28
2023-01-20T02:59:36.559Z,99489.00
2023-01-20T03:02:09.154Z,99492.94
2023-01-20T03:04:45.141Z,99490.97
2023-01-20T03:07:14.539Z,99495.44
2023-01-20T03:09:47.682Z,99505.50
2023-01-20T03:12:22.475Z,99504.00
2023-01-20T03:14:52.121Z,99502.84
2023-01-20T03:17:23.082Z,99500.84
2023-01-20T03:19:50.161Z,99503.19
2023-01-20T03:22:17.267Z,99502.22
2023-01-20T03:24:46.453Z,99509.16
2023-01-20T03:27:14.854Z,99503.38
2023-01-20T03:29:41.781Z,99513.47
2023-01-20T03:32:11.041Z,99515.31
2023-01-20T03:34:40.683Z,99519.25
2023-01-20T03:37:08.493Z,99515.16
2023-01-20T03:39:39.851Z,99518.97
2023-01-20T03:42:22.147Z,99512.00
2023-01-20T03:45:05.995Z,99517.63
2023-01-20T03:47:57.357Z,99511.81
2023-01-20T03:50:24.201Z,99528.03
2023-01-20T03:52:53.903Z,99516.13
2023-01-20T03:55:32.313Z,99516.94
2023-01-20T03:58:04.977Z,99514.50
2023-01-20T04:00:35.748Z,99509.69
2023-01-20T04:03:08.738Z,99514.50
2023-01-20T04:05:37.616Z,99527.56
2023-01-20T04:08:08.900Z,99524.59
2023-01-20T04:10:39.322Z,99529.22
2023-01-20T04:13:06.253Z,99522.59
2023-01-20T04:15:44.643Z,99524.59
2023-01-20T04:18:12.610Z,99527.38
2023-01-20T04:20:40.342Z,99525.06
2023-01-20T04:23:14.397Z,99517.13
2023-01-20T04:25:41.487Z,99508.88
2023-01-20T04:28:08.296Z,99515.31
2023-01-20T04:30:35.273Z,99515.69
2023-01-20T04:33:02.135Z,99511.38
2023-01-20T04:35:28.966Z,99513.38
2023-01-20T04:37:55.962Z,99505.44
2023-01-20T04:40:22.941Z,99497.81
2023-01-20T04:42:49.765Z,99510.53
2023-01-20T04:45:17.582Z,99496.31
2023-01-20T04:47:44.990Z,99496.16
2023-01-20T04:50:14.173Z,99488.38
2023-01-20T04:52:41.323Z,99494.50
2023-01-20T04:55:08.890Z,99498.00
2023-01-20T04:57:35.687Z,99491.38
2023-01-20T05:00:02.732Z,99492.03
2023-01-20T05:02:29.673Z,99496.19
2023-01-20T05:04:56.581Z,99488.88
2023-01-20T05:07:23.607Z,99486.22
2023-01-20T05:09:50.487Z,99494.69
2023-01-20T05:12:17.268Z,99494.19
2023-01-20T05:14:44.179Z,99495.34
2023-01-20T05:17:11.047Z,99492.50
2023-01-20T05:19:38.133Z,99485.75
2023-01-20T05:22:04.938Z,99479.78
2023-01-20T05:24:36.612Z,99485.22
2023-01-20T05:27:06.347Z,99488.06
2023-01-20T05:29:35.425Z,99491.19
2023-01-20T05:32:02.239Z,99485.88
2023-01-20T05:34:29.047Z,99480.28
2023-01-20T05:36:55.953Z,99487.88
2023-01-20T05:39:23.079Z,99485.06
2023-01-20T05:41:50.064Z,99483.91
2023-01-20T05:44:17.078Z,99484.59
2023-01-20T05:46:43.956Z,99481.25
2023-01-20T05:49:12.757Z,99493.00
2023-01-20T05:51:39.702Z,99483.41
2023-01-20T05:54:06.616Z,99477.28
2023-01-20T05:56:33.511Z,99482.75
2023-01-20T05:59:00.411Z,99489.53
2023-01-20T06:01:27.787Z,99485.91
2023-01-20T06:03:54.835Z,99485.22
2023-01-20T06:06:21.829Z,99483.56
2023-01-20T06:08:49.751Z,99490.31
2023-01-20T06:11:18.181Z,99483.53
2023-01-20T06:13:48.285Z,99496.47
2023-01-20T06:16:16.867Z,99500.78
2023-01-20T06:18:43.882Z,99491.81
2023-01-20T06:21:10.896Z,99486.38
2023-01-20T06:23:37.827Z,99493.31
2023-01-20T06:26:11.777Z,99491.66
2023-01-20T06:28:38.709Z,99484.03
2023-01-20T06:31:08.732Z,99486.84
2023-01-20T06:33:36.177Z,99496.78
2023-01-20T06:36:04.559Z,99491.97
2023-01-20T06:38:33.632Z,99494.97
2023-01-20T06:41:03.204Z,99500.41
2023-01-20T06:43:35.265Z,99493.94
2023-01-20T06:46:04.734Z,99499.44
2023-01-20T06:48:32.456Z,99495.97
2023-01-20T06:51:04.549Z,99501.59
2023-01-20T06:53:31.559Z,99503.69
2023-01-20T06:56:00.835Z,99508.50
2023-01-20T06:58:30.542Z,99509.00
2023-01-20T07:00:58.515Z,99500.06
2023-01-20T07:03:25.544Z,99506.84
2023-01-20T07:05:59.170Z,99506.03
2023-01-20T07:08:26.261Z,99501.19
2023-01-20T07:10:53.101Z,99511.78
2023-01-20T07:13:20.302Z,99516.09
2023-01-20T07:15:47.156Z,99510.97
2023-01-20T07:18:14.186Z,99514.97
2023-01-20T07:20:41.068Z,99515.59
2023-01-20T07:23:08.108Z,99513.25
2023-01-20T07:25:35.042Z,99524.22
2023-01-20T07:28:01.921Z,99529.50
2023-01-20T07:30:28.921Z,99524.56
2023-01-20T07:32:56.055Z,99530.47
2023-01-20T07:35:24.258Z,99525.72
2023-01-20T07:37:51.140Z,99518.91
2023-01-20T07:40:18.203Z,99523.72
2023-01-20T07:42:45.241Z,99523.38
2023-01-20T07:45:12.203Z,99524.06
2023-01-20T07:47:39.448Z,99522.88
2023-01-20T07:50:06.547Z,99528.50
2023-01-20T07:52:33.603Z,99537.28
2023-01-20T07:55:00.552Z,99526.94
2023-01-20T07:57:30.367Z,99534.59
2023-01-20T07:59:57.251Z,99541.19
2023-01-20T08:02:24.255Z,99542.84
2023-01-20T08:04:51.113Z,99548.78
2023-01-20T08:07:19.021Z,99548.59
2023-01-20T08:09:46.307Z,99557.69
2023-01-20T08:12:13.193Z,99545.06
2023-01-20T08:14:40.166Z,99553.03
2023-01-20T08:17:07.062Z,99554.03
2023-01-20T08:19:33.929Z,99554.84
2023-01-20T08:22:00.817Z,99554.69
2023-01-20T08:24:27.620Z,99558.66
2023-01-20T08:26:54.583Z,99557.94
2023-01-20T08:29:21.427Z,99554.59
2023-01-20T08:31:48.583Z,99549.63
2023-01-20T08:34:15.567Z,99549.91
2023-01-20T08:36:42.693Z,99556.91
2023-01-20T08:39:18.717Z,99563.47
2023-01-20T08:41:46.703Z,99567.22
2023-01-20T08:44:14.961Z,99569.00
2023-01-20T08:46:42.189Z,99570.25
2023-01-20T08:49:11.483Z,99574.66
2023-01-20T08:51:38.934Z,99578.69
2023-01-20T08:54:06.019Z,99575.16
2023-01-20T08:56:34.187Z,99574.75
2023-01-20T08:59:02.375Z,99574.75
2023-01-20T09:01:32.319Z,99580.94
2023-01-20T09:04:05.790Z,99577.81
2023-01-20T09:06:42.467Z,99585.06
2023-01-20T09:09:10.140Z,99587.47
2023-01-20T09:11:37.275Z,99589.25
2023-01-20T09:14:04.234Z,99590.91
2023-01-20T09:16:31.029Z,99601.00
2023-01-20T09:18:57.869Z,99601.59
2023-01-20T09:21:24.753Z,99606.53
2023-01-20T09:23:52.420Z,99599.09
2023-01-20T09:26:34.218Z,99610.09
2023-01-20T09:29:09.759Z,99612.81
2023-01-20T09:31:45.566Z,99614.09
2023-01-20T09:34:21.638Z,99619.69
2023-01-20T09:36:52.034Z,99613.53
2023-01-20T09:39:37.765Z,99618.81
2023-01-20T09:42:50.199Z,99608.69
2023-01-20T09:45:33.714Z,99617.50
2023-01-20T09:48:41.141Z,99611.16
2023-01-20T09:51:34.751Z,99609.44
2023-01-20T09:54:08.829Z,99608.47
2023-01-20T09:56:43.906Z,99608.69
2023-01-20T09:59:16.014Z,99605.91
2023-01-20T10:01:51.456Z,99605.22
2023-01-20T10:04:25.621Z,99602.00
2023-01-20T10:07:30.869Z,99608.06
2023-01-20T10:10:10.700Z,99605.63
2023-01-20T10:12:56.074Z,99599.34
2023-01-20T10:15:27.989Z,99604.38
2023-01-20T10:18:09.449Z,99600.78
2023-01-20T10:20:56.837Z,99604.28
2023-01-20T10:23:29.676Z,99603.91
2023-01-20T10:26:07.638Z,99592.91
2023-01-20T10:28:55.742Z,99593.13
2023-01-20T10:31:27.912Z,99595.66
2023-01-20T10:34:07.331Z,99600.63
2023-01-20T10:36:35.177Z,99596.31
2023-01-20T10:39:17.949Z,99598.53
2023-01-20T10:41:50.700Z,99599.72
2023-01-20T10:44:17.708Z,99597.66
2023-01-20T10:46:59.637Z,99580.25
2023-01-20T10:49:52.901Z,99585.38
2023-01-20T10:52:25.560Z,99585.97
2023-01-20T10:55:24.535Z,99585.88
2023-01-20T10:58:02.175Z,99584.59
2023-01-20T11:00:31.770Z,99589.41
2023-01-20T11:03:00.905Z,99588.44
2023-01-20T11:05:37.422Z,99596.75
2023-01-20T11:08:15.480Z,99588.16
2023-01-20T11:10:42.557Z,99594.28
2023-01-20T11:13:11.205Z,99596.13
2023-01-20T11:15:43.515Z,99594.16
2023-01-20T11:18:16.372Z,99593.19
2023-01-20T11:20:47.981Z,99589.22
2023-01-20T11:23:34.415Z,99580.78
2023-01-20T11:26:10.174Z,99584.53
2023-01-20T11:28:46.484Z,99586.00
2023-01-20T11:31:14.162Z,99572.50
2023-01-20T11:33:54.015Z,99588.53
2023-01-20T11:36:24.105Z,99586.69
2023-01-20T11:38:52.491Z,99588.78
2023-01-20T11:41:27.232Z,99594.19
2023-01-20T11:43:56.513Z,99586.59
2023-01-20T11:46:30.439Z,99595.88
2023-01-20T11:49:22.974Z,99603.69
2023-01-20T11:51:55.897Z,99595.78
2023-01-20T11:54:30.365Z,99597.31
2023-01-20T11:57:04.791Z,99599.34
2023-01-20T11:59:35.139Z,99592.38
2023-01-20T12:02:20.519Z,99593.34
2023-01-20T12:05:10.785Z,99591.03
2023-01-20T12:07:49.099Z,99592.53
2023-01-20T12:10:30.401Z,99604.94
2023-01-20T12:13:06.003Z,99593.03
2023-01-20T12:15:37.871Z,99597.66
2023-01-20T12:18:35.464Z,99584.09
2023-01-20T12:21:10.538Z,99592.06
2023-01-20T12:23:46.483Z,99594.88
2023-01-20T12:26:15.719Z,99608.53
2023-01-20T12:28:55.041Z,99612.16
2023-01-20T12:31:25.864Z,99620.94
2023-01-20T12:33:58.186Z,99613.63
2023-01-20T12:36:43.223Z,99609.16
2023-01-20T12:39:40.501Z,99617.59
2023-01-20T12:42:34.259Z,99607.63
2023-01-20T12:45:13.005Z,99609.44
2023-01-20T12:48:00.137Z,99612.06
2023-01-20T12:50:35.666Z,99615.25
2023-01-20T12:53:38.993Z,99611.91
2023-01-20T12:56:05.907Z,99619.44
2023-01-20T12:58:46.351Z,99610.50
2023-01-20T13:01:22.332Z,99616.59
2023-01-20T13:04:26.638Z,99612.56
2023-01-20T13:07:02.025Z,99615.97
2023-01-20T13:09:40.650Z,99613.19
2023-01-20T13:12:31.964Z,99622.97
2023-01-20T13:15:26.950Z,99631.00
2023-01-20T13:18:11.735Z,99629.69
2023-01-20T13:20:45.658Z,99638.81
2023-01-20T13:23:34.701Z,99639.31
2023-01-20T13:26:05.038Z,99630.97
2023-01-20T13:28:32.138Z,99645.06
2023-01-20T13:31:00.888Z,99643.25
2023-01-20T13:33:39.964Z,99645.56
2023-01-20T13:36:23.797Z,99658.84
2023-01-20T13:39:11.916Z,99657.69
2023-01-20T13:41:52.663Z,99664.47
2023-01-20T13:44:46.104Z,99660.00
2023-01-20T13:47:47.851Z,99665.28
2023-01-20T13:50:42.580Z,99667.97
2023-01-20T13:53:21.699Z,99670.78
2023-01-20T13:55:48.616Z,99666.31
2023-01-20T13:58:16.097Z,99675.56
2023-01-20T14:00:44.046Z,99671.09
2023-01-20T14:03:19.740Z,99679.56
2023-01-20T14:05:53.573Z,99675.25
2023-01-20T14:08:22.047Z,99682.03
2023-01-20T14:10:49.124Z,99684.31
2023-01-20T14:13:24.578Z,99683.34
2023-01-20T14:15:56.008Z,99686.66
2023-01-20T14:18:26.070Z,99691.97
2023-01-20T14:21:18.060Z,99695.63
2023-01-20T14:23:48.216Z,99698.94
2023-01-20T14:26:22.411Z,99702.75
2023-01-20T14:28:52.389Z,99700.09
2023-01-20T14:31:20.820Z,99701.41
2023-01-20T14:33:58.305Z,99697.13
2023-01-20T14:36:26.692Z,99702.84
2023-01-20T14:38:58.481Z,99701.06
2023-01-20T14:41:29.003Z,99702.06
2023-01-20T14:43:56.028Z,99694.63
2023-01-20T14:46:24.892Z,99703.56
2023-01-20T14:48:54.074Z,99707.19
2023-01-20T14:51:22.588Z,99709.50
2023-01-20T14:54:27.799Z,99712.44
2023-01-20T14:56:54.852Z,99714.13
2023-01-20T14:59:22.303Z,99723.00
2023-01-20T15:02:01.040Z,99712.22
2023-01-20T15:04:35.885Z,99718.72
2023-01-20T15:07:03.416Z,99721.38
2023-01-20T15:09:35.033Z,99722.56
2023-01-20T15:12:46.956Z,99727.22
2023-01-20T15:15:36.275Z,99727.56
2023-01-20T15:18:15.735Z,99736.28
2023-01-20T15:20:47.193Z,99733.91
2023-01-20T15:23:19.494Z,99734.44
2023-01-20T15:25:47.483Z,99725.84
2023-01-20T15:28:26.303Z,99730.47
2023-01-20T15:30:55.064Z,99733.13
2023-01-20T15:33:24.075Z,99728.47
2023-01-20T15:35:55.935Z,99735.03
2023-01-20T15:38:22.953Z,99734.91
2023-01-20T15:40:50.220Z,99740.31
2023-01-20T15:43:18.285Z,99739.84
2023-01-20T15:45:45.687Z,99743.16
2023-01-20T15:48:22.402Z,99748.09
2023-01-20T15:50:49.261Z,99749.59
2023-01-20T15:53:16.328Z,99746.94
2023-01-20T15:55:50.488Z,99749.13
2023-01-20T15:58:21.932Z,99751.72
2023-01-20T16:00:48.909Z,99747.09
2023-01-20T16:03:15.782Z,99750.28
2023-01-20T16:05:42.679Z,99740.53
2023-01-20T16:08:15.894Z,99742.22
2023-01-20T16:10:42.936Z,99751.94
2023-01-20T16:13:12.802Z,99744.00
2023-01-20T16:15:42.438Z,99742.03
2023-01-20T16:18:14.760Z,99741.88
2023-01-20T16:20:43.308Z,99737.56
2023-01-20T16:23:10.232Z,99741.19
2023-01-20T16:25:38.076Z,99743.53
2023-01-20T16:28:14.826Z,99745.75
2023-01-20T16:30:42.018Z,99741.59
2023-01-20T16:33:17.566Z,99746.44
2023-01-20T16:35:44.583Z,99741.44
2023-01-20T16:38:16.853Z,99739.66
2023-01-20T16:41:17.651Z,99731.22
2023-01-20T16:43:44.520Z,99726.75
2023-01-20T16:46:28.555Z,99723.75
2023-01-20T16:49:05.197Z,99720.13
2023-01-20T16:51:32.792Z,99715.16
2023-01-20T16:53:59.994Z,99712.19
2023-01-20T16:56:28.995Z,99709.00
2023-01-20T16:58:57.974Z,99713.81
2023-01-20T17:01:26.234Z,99713.97
2023-01-20T17:03:58.801Z,99719.13
2023-01-20T17:06:31.142Z,99711.19
2023-01-20T17:09:00.121Z,99715.00
2023-01-20T17:11:30.056Z,99720.13
2023-01-20T17:13:57.510Z,99718.00
2023-01-20T17:16:27.974Z,99722.59
2023-01-20T17:18:56.804Z,99727.91
2023-01-20T17:21:24.601Z,99728.88
2023-01-20T17:23:53.230Z,99735.84
2023-01-20T17:26:21.349Z,99736.31
2023-01-20T17:28:48.396Z,99739.66
2023-01-20T17:31:15.354Z,99748.94
2023-01-20T17:33:46.642Z,99755.72
2023-01-20T17:36:13.579Z,99761.19
2023-01-20T17:38:40.524Z,99772.13
2023-01-20T17:41:08.636Z,99779.94
2023-01-20T17:43:41.307Z,99777.63
2023-01-20T17:46:16.910Z,99779.47
2023-01-20T17:48:44.574Z,99784.75
2023-01-20T17:51:14.343Z,99792.00
2023-01-20T17:53:41.703Z,99796.16
2023-01-20T17:56:12.687Z,99790.53
2023-01-20T17:58:42.172Z,99781.72
2023-01-20T18:01:11.134Z,99791.81
2023-01-20T18:03:40.012Z,99781.88
2023-01-20T18:06:08.905Z,99784.69
2023-01-20T18:08:36.340Z,99785.50
2023-01-20T18:11:11.775Z,99779.22
2023-01-20T18:13:39.225Z,99781.69
2023-01-20T18:16:11.837Z,99786.19
2023-01-20T18:18:39.893Z,99779.72
2023-01-20T18:21:14.547Z,99785.72
2023-01-20T18:23:42.580Z,99785.56
2023-01-20T18:26:11.706Z,99784.88
2023-01-20T18:28:38.593Z,99783.41
2023-01-20T18:31:10.850Z,99784.88
2023-01-20T18:33:44.413Z,99774.81
2023-01-20T18:36:14.985Z,99776.94
2023-01-20T18:38:45.264Z,99781.75
2023-01-20T18:41:15.148Z,99776.44
2023-01-20T18:43:42.177Z,99778.78
2023-01-20T18:46:09.660Z,99774.63
2023-01-20T18:48:40.556Z,99771.50
2023-01-20T18:51:15.072Z,99772.50
2023-01-20T18:53:45.068Z,99762.88
2023-01-20T18:56:16.043Z,99762.88
2023-01-20T18:58:49.837Z,99769.81
2023-01-20T19:01:19.804Z,99770.00
2023-01-20T19:03:48.495Z,99770.16
2023-01-20T19:06:18.153Z,99776.59
2023-01-20T19:08:46.174Z,99776.25
2023-01-20T19:11:17.752Z,99778.09
2023-01-20T19:13:46.458Z,99780.22
2023-01-20T19:16:13.409Z,99778.53
2023-01-20T19:18:41.659Z,99782.66
2023-01-20T19:21:15.532Z,99781.34
2023-01-20T19:23:43.523Z,99779.03
2023-01-20T19:26:12.598Z,99792.91
2023-01-20T19:28:40.755Z,99796.28
2023-01-20T19:31:09.791Z,99799.75
2023-01-20T19:33:37.999Z,99799.22
2023-01-20T19:36:11.475Z,99804.81
2023-01-20T19:38:38.626Z,99797.81
2023-01-20T19:41:09.770Z,99803.81
2023-01-20T19:43:37.472Z,99812.38
2023-01-20T19:46:06.518Z,99812.84
2023-01-20T19:48:33.618Z,99812.13
2023-01-20T19:51:04.698Z,99822.25
2023-01-20T19:53:32.241Z,99826.13
2023-01-20T19:56:06.366Z,99833.78
2023-01-20T19:58:33.843Z,99838.09
2023-01-20T20:01:11.368Z,99840.16
2023-01-20T20:03:39.815Z,99848.75
2023-01-20T20:06:08.211Z,99855.41
2023-01-20T20:08:37.755Z,99860.59
2023-01-20T20:11:04.749Z,99864.25
2023-01-20T20:13:31.637Z,99858.97
2023-01-20T20:16:05.722Z,99843.03
2023-01-20T20:18:32.968Z,99847.06
2023-01-20T20:21:00.136Z,99844.88
2023-01-20T20:23:27.191Z,99844.34
2023-01-20T20:25:57.961Z,99854.84
2023-01-20T20:28:28.873Z,99853.91
2023-01-20T20:30:55.948Z,99860.63
2023-01-20T20:33:24.563Z,99861.22
2023-01-20T20:35:52.047Z,99871.78
2023-01-20T20:38:18.892Z,99864.97
2023-01-20T20:40:46.098Z,99876.66
2023-01-20T20:43:13.101Z,99877.78
2023-01-20T20:45:39.954Z,99885.53
2023-01-20T20:48:06.845Z,99879.97
2023-01-20T20:50:34.119Z,99880.81
2023-01-20T20:53:01.007Z,99871.81
2023-01-20T20:55:29.395Z,99875.81
2023-01-20T20:57:56.692Z,99877.22
2023-01-20T21:00:28.202Z,99878.78
2023-01-20T21:02:55.764Z,99881.28
2023-01-20T21:05:22.629Z,99871.66
2023-01-20T21:07:49.476Z,99876.38
2023-01-20T21:10:17.718Z,99876.03
2023-01-20T21:12:45.036Z,99871.44
2023-01-20T21:15:12.161Z,99882.81
2023-01-20T21:17:39.495Z,99876.72
2023-01-20T21:20:08.045Z,99865.63
2023-01-20T21:22:35.169Z,99876.66
2023-01-20T21:25:02.130Z,99863.56
2023-01-20T21:27:31.214Z,99863.66
2023-01-20T21:29:58.150Z,99865.41
2023-01-20T21:32:25.310Z,99873.50
2023-01-20T21:34:53.103Z,99864.13
2023-01-20T21:37:20.702Z,99870.00
2023-01-20T21:39:47.510Z,99872.34
2023-01-20T21:42:14.380Z,99863.47
2023-01-20T21:44:43.306Z,99868.88
2023-01-20T21:47:10.925Z,99873.69
2023-01-20T21:49:56.437Z,99871.06
2023-01-20T21:52:43.137Z,99870.38
2023-01-20T21:55:17.416Z,99864.97
2023-01-20T21:57:44.607Z,99868.00
2023-01-20T22:00:13.281Z,99866.72
2023-01-20T22:02:43.563Z,99872.34
2023-01-20T22:05:11.238Z,99855.91
2023-01-20T22:07:38.350Z,99857.56
2023-01-20T22:10:05.847Z,99857.00
2023-01-20T22:12:34.784Z,99866.88
2023-01-20T22:15:03.598Z,99861.56
2023-01-20T22:17:31.094Z,99854.69
2023-01-20T22:19:57.978Z,99845.88
2023-01-20T22:22:24.836Z,99846.75
2023-01-20T22:24:53.461Z,99847.28
2023-01-20T22:27:20.444Z,99844.34
2023-01-20T22:29:47.461Z,99854.97
2023-01-20T22:32:14.399Z,99852.16
2023-01-20T22:34:42.351Z,99858.78
2023-01-20T22:37:09.520Z,99858.31
2023-01-20T22:39:36.530Z,99857.06
2023-01-20T22:42:03.458Z,99850.50
2023-01-20T22:44:30.359Z,99851.03
2023-01-20T22:46:57.244Z,99856.00
2023-01-20T22:49:27.094Z,99849.28
2023-01-20T22:52:01.466Z,99835.41
2023-01-20T22:54:28.413Z,99836.31
2023-01-20T22:56:55.239Z,99834.56
2023-01-20T22:59:24.772Z,99836.50
2023-01-20T23:01:51.684Z,99831.53
2023-01-20T23:04:18.533Z,99826.50
2023-01-20T23:06:45.476Z,99829.13
2023-01-20T23:09:14.555Z,99830.94
2023-01-20T23:11:41.912Z,99837.13
2023-01-20T23:14:12.947Z,99823.69
2023-01-20T23:16:41.305Z,99818.97
2023-01-20T23:19:08.562Z,99806.75
2023-01-20T23:21:36.040Z,99810.47
2023-01-20T23:24:03.006Z,99803.88
2023-01-20T23:26:30.925Z,99805.25
2023-01-20T23:28:58.069Z,99804.78
2023-01-20T23:31:25.853Z,99792.38
2023-01-20T23:33:53.780Z,99803.50
2023-01-20T23:36:25.776Z,99800.50
2023-01-20T23:38:56.912Z,99802.16
2023-01-20T23:41:25.399Z,99798.00
2023-01-20T23:43:52.254Z,99795.25
2023-01-20T23:46:19.195Z,99796.06
2023-01-20T23:48:47.116Z,99787.59
2023-01-20T23:51:14.365Z,99792.25
2023-01-20T23:53:41.688Z,99790.56
2023-01-20T23:56:12.998Z,99781.06
2023-01-20T23:58:40.252Z,99785.69
